Time;durP1;ratioP1;P1;durP2;ratioP2;P2;SDS_P1;SDS_P2;PMS_P1;PMS_P2;Temp;Humidity;BMP_temperature;BMP_pressure;BME280_temperature;BME280_humidity;BME280_pressure;Samples;Min_cycle;Max_cycle;Signal;HPM_P1;HPM_P2
2023/04/02 00:02:26;;;;;;;38.95;33.08;;;;;;;;;;4990265;28;20181;-55
2023/04/02 00:05:14;;;;;;;35.17;31.33;;;;;;;;;;4993920;28;20268;-55
2023/04/02 00:07:43;;;;;;;35.28;31.05;;;;;;;;;;4993320;28;20515;-55
2023/04/02 00:10:25;;;;;;;33.60;29.70;;;;;;;;;;4991417;28;20205;-55
2023/04/02 00:13:21;;;;;;;35.58;31.27;;;;;;;;;;4992892;28;20173;-55
2023/04/02 00:15:49;;;;;;;33.55;28.95;;;;;;;;;;4992589;28;20200;-55
2023/04/02 00:18:16;;;;;;;35.45;30.52;;;;;;;;;;4992685;28;20575;-55
2023/04/02 00:20:43;;;;;;;31.95;28.38;;;;;;;;;;4993948;28;20193;-55
2023/04/02 00:23:13;;;;;;;32.15;28.38;;;;;;;;;;4989524;28;20212;-55
2023/04/02 00:25:43;;;;;;;30.83;27.52;;;;;;;;;;4990205;28;20181;-55
2023/04/02 00:28:12;;;;;;;31.95;27.55;;;;;;;;;;4986540;28;20296;-55
2023/04/02 00:30:45;;;;;;;30.40;26.92;;;;;;;;;;4992615;28;20200;-55
2023/04/02 00:33:15;;;;;;;31.77;27.25;;;;;;;;;;4990748;28;20591;-55
2023/04/02 00:35:41;;;;;;;32.17;26.77;;;;;;;;;;4990733;28;20208;-55
2023/04/02 00:38:09;;;;;;;30.95;27.58;;;;;;;;;;4990493;28;20535;-55
2023/04/02 00:40:38;;;;;;;32.20;26.50;;;;;;;;;;4997685;28;20593;-55
2023/04/02 00:43:05;;;;;;;28.13;24.70;;;;;;;;;;4992679;28;20217;-56
2023/04/02 00:45:34;;;;;;;28.35;24.75;;;;;;;;;;4996401;28;20517;-55
2023/04/02 00:48:13;;;;;;;27.50;24.55;;;;;;;;;;4992527;28;20217;-56
2023/04/02 00:50:40;;;;;;;26.83;23.23;;;;;;;;;;4995660;28;20480;-55
2023/04/02 00:53:12;;;;;;;27.75;23.90;;;;;;;;;;4989673;28;20194;-55
2023/04/02 00:55:41;;;;;;;25.92;23.13;;;;;;;;;;4996638;28;20239;-56
2023/04/02 00:58:21;;;;;;;26.15;23.23;;;;;;;;;;4989592;28;20181;-56
2023/04/02 01:00:51;;;;;;;26.92;22.60;;;;;;;;;;4995741;28;20196;-56
2023/04/02 01:03:18;;;;;;;26.42;22.13;;;;;;;;;;4989558;28;20279;-55
2023/04/02 01:05:44;;;;;;;24.70;21.48;;;;;;;;;;4996849;28;20532;-55
2023/04/02 01:08:19;;;;;;;25.50;22.00;;;;;;;;;;4989661;28;20217;-55
2023/04/02 01:10:54;;;;;;;24.27;21.33;;;;;;;;;;4995986;28;20568;-55
2023/04/02 01:13:28;;;;;;;23.92;21.15;;;;;;;;;;4989293;28;20182;-55
2023/04/02 01:16:02;;;;;;;24.60;21.27;;;;;;;;;;4996927;28;20181;-55
2023/04/02 01:18:38;;;;;;;23.85;21.25;;;;;;;;;;4990735;28;20200;-55
2023/04/02 01:21:05;;;;;;;23.35;20.08;;;;;;;;;;4996464;28;20440;-55
2023/04/02 01:23:48;;;;;;;22.45;20.00;;;;;;;;;;4993100;28;20169;-55
2023/04/02 01:26:23;;;;;;;23.35;20.40;;;;;;;;;;4995029;28;20307;-55
2023/04/02 01:28:58;;;;;;;21.55;19.15;;;;;;;;;;4990790;28;20555;-55
2023/04/02 01:31:26;;;;;;;22.05;18.88;;;;;;;;;;4996147;28;20666;-55
2023/04/02 01:33:52;;;;;;;22.25;19.13;;;;;;;;;;4987730;28;20440;-55
2023/04/02 01:36:23;;;;;;;21.02;18.75;;;;;;;;;;4990625;28;20193;-55
2023/04/02 01:39:11;;;;;;;20.63;17.40;;;;;;;;;;4993730;28;20227;-55
2023/04/02 01:41:49;;;;;;;21.20;18.35;;;;;;;;;;4994118;28;20181;-55
2023/04/02 01:44:21;;;;;;;20.13;17.60;;;;;;;;;;4994427;28;20204;-55
2023/04/02 01:46:48;;;;;;;19.20;17.13;;;;;;;;;;4995888;28;20211;-55
2023/04/02 01:49:15;;;;;;;18.38;16.38;;;;;;;;;;4993112;28;20192;-55
2023/04/02 01:51:45;;;;;;;18.33;16.38;;;;;;;;;;4995145;28;20185;-55
2023/04/02 01:54:13;;;;;;;19.33;16.50;;;;;;;;;;4992663;28;20174;-55
2023/04/02 01:56:41;;;;;;;20.00;16.55;;;;;;;;;;4995028;28;20192;-55
2023/04/02 01:59:09;;;;;;;17.98;16.05;;;;;;;;;;4993556;28;20569;-55
2023/04/02 02:01:38;;;;;;;17.73;15.75;;;;;;;;;;4995409;28;20203;-55
2023/04/02 02:04:04;;;;;;;16.48;14.70;;;;;;;;;;4994897;28;20197;-55
2023/04/02 02:06:30;;;;;;;17.60;15.60;;;;;;;;;;4987936;28;20209;-55
2023/04/02 02:09:00;;;;;;;15.48;13.88;;;;;;;;;;4993817;28;20239;-55
2023/04/02 02:11:27;;;;;;;16.33;14.63;;;;;;;;;;4995247;28;20178;-55
2023/04/02 02:13:55;;;;;;;17.52;14.80;;;;;;;;;;4992196;28;20216;-55
2023/04/02 02:16:21;;;;;;;15.95;14.25;;;;;;;;;;4995838;28;20189;-55
2023/04/02 02:18:51;;;;;;;15.30;13.70;;;;;;;;;;4992241;28;20190;-55
2023/04/02 02:21:29;;;;;;;15.15;13.15;;;;;;;;;;4995764;28;20188;-55
2023/04/02 02:23:55;;;;;;;14.15;12.60;;;;;;;;;;4986811;28;20181;-55
2023/04/02 02:26:23;;;;;;;15.73;13.82;;;;;;;;;;4991678;28;20511;-54
2023/04/02 02:28:50;;;;;;;15.15;13.50;;;;;;;;;;4989654;28;20189;-54
2023/04/02 02:31:26;;;;;;;14.10;12.68;;;;;;;;;;4995222;28;20181;-54
2023/04/02 02:33:53;;;;;;;14.52;12.15;;;;;;;;;;4994366;28;20181;-55
2023/04/02 02:36:24;;;;;;;14.80;13.20;;;;;;;;;;4989505;28;20185;-55
2023/04/02 02:38:57;;;;;;;13.23;11.82;;;;;;;;;;5000958;28;20599;-55
2023/04/02 02:41:26;;;;;;;12.57;11.10;;;;;;;;;;4995383;28;20205;-55
2023/04/02 02:44:04;;;;;;;12.85;11.35;;;;;;;;;;4989253;28;20185;-55
2023/04/02 02:46:31;;;;;;;12.80;11.40;;;;;;;;;;4988248;28;20607;-54
2023/04/02 02:48:58;;;;;;;12.45;11.15;;;;;;;;;;4991433;28;20457;-54
2023/04/02 02:51:30;;;;;;;12.93;11.38;;;;;;;;;;4991444;28;20181;-55
2023/04/02 02:54:00;;;;;;;12.73;11.35;;;;;;;;;;4987538;28;20205;-55
2023/04/02 02:56:27;;;;;;;12.27;10.95;;;;;;;;;;4994753;28;20197;-55
2023/04/02 02:58:53;;;;;;;11.85;10.65;;;;;;;;;;4993723;28;20181;-55
2023/04/02 03:01:19;;;;;;;12.35;10.60;;;;;;;;;;4993608;28;20188;-55
2023/04/02 03:03:46;;;;;;;11.00;9.82;;;;;;;;;;4993944;28;20238;-55
2023/04/02 03:06:15;;;;;;;10.77;9.68;;;;;;;;;;4993922;28;20565;-55
2023/04/02 03:08:44;;;;;;;11.02;9.82;;;;;;;;;;4985205;28;20188;-55
2023/04/02 03:11:13;;;;;;;11.50;10.30;;;;;;;;;;4988245;28;20276;-55
2023/04/02 03:13:40;;;;;;;10.65;9.55;;;;;;;;;;4990472;28;20258;-55
2023/04/02 03:16:25;;;;;;;11.15;9.43;;;;;;;;;;4986497;28;20184;-55
2023/04/02 03:18:53;;;;;;;10.02;8.82;;;;;;;;;;4984988;28;20914;-55
2023/04/02 03:21:24;;;;;;;9.98;8.95;;;;;;;;;;4994472;28;20178;-55
2023/04/02 03:23:59;;;;;;;10.25;9.15;;;;;;;;;;4991915;28;20191;-55
2023/04/02 03:26:37;;;;;;;9.75;8.75;;;;;;;;;;4993923;28;20433;-55
2023/04/02 03:29:06;;;;;;;9.82;8.82;;;;;;;;;;4992906;28;20227;-55
2023/04/02 03:31:37;;;;;;;9.32;8.40;;;;;;;;;;4992655;28;20514;-55
2023/04/02 03:34:20;;;;;;;9.43;8.43;;;;;;;;;;4992736;28;20272;-55
2023/04/02 03:36:52;;;;;;;9.52;8.27;;;;;;;;;;4991880;28;20189;-55
2023/04/02 03:39:22;;;;;;;8.50;7.60;;;;;;;;;;4988031;28;20292;-55
2023/04/02 03:41:48;;;;;;;8.70;7.90;;;;;;;;;;4994095;28;20174;-55
2023/04/02 03:44:19;;;;;;;8.75;7.82;;;;;;;;;;4986395;28;20292;-55
2023/04/02 03:46:48;;;;;;;8.75;7.78;;;;;;;;;;4992332;28;20276;-55
2023/04/02 03:49:29;;;;;;;7.90;7.10;;;;;;;;;;4992279;28;20189;-55
2023/04/02 03:51:58;;;;;;;7.97;7.18;;;;;;;;;;4993894;28;20238;-55
2023/04/02 03:54:24;;;;;;;7.65;6.78;;;;;;;;;;4991009;28;20452;-55
2023/04/02 03:56:51;;;;;;;7.05;6.35;;;;;;;;;;4992450;28;20190;-55
2023/04/02 03:59:31;;;;;;;8.00;6.88;;;;;;;;;;4991776;28;20197;-55
2023/04/02 04:02:29;;;;;;;7.18;6.47;;;;;;;;;;4992597;28;20193;-55
2023/04/02 04:04:56;;;;;;;7.25;6.55;;;;;;;;;;4972382;28;20272;-55
2023/04/02 04:07:39;;;;;;;6.82;6.13;;;;;;;;;;4996609;28;20483;-55
2023/04/02 04:10:06;;;;;;;6.80;6.10;;;;;;;;;;4997549;28;20248;-55
2023/04/02 04:12:32;;;;;;;6.38;5.78;;;;;;;;;;4994230;28;20185;-55
2023/04/02 04:15:07;;;;;;;6.63;5.85;;;;;;;;;;4997210;28;20211;-55
2023/04/02 04:17:37;;;;;;;6.97;5.93;;;;;;;;;;4991616;28;20265;-55
2023/04/02 04:20:13;;;;;;;6.38;5.78;;;;;;;;;;4991106;28;20281;-54
2023/04/02 04:22:39;;;;;;;5.95;5.35;;;;;;;;;;4990855;28;20188;-54
2023/04/02 04:25:07;;;;;;;6.20;5.60;;;;;;;;;;4997903;28;20285;-55
2023/04/02 04:27:41;;;;;;;5.13;4.70;;;;;;;;;;4996301;28;20211;-55
2023/04/02 04:30:09;;;;;;;5.97;5.38;;;;;;;;;;4990445;28;20227;-55
2023/04/02 04:32:41;;;;;;;5.85;5.18;;;;;;;;;;4991072;28;20174;-55
2023/04/02 04:35:07;;;;;;;4.97;4.47;;;;;;;;;;4997295;28;20217;-55
2023/04/02 04:37:35;;;;;;;5.50;5.00;;;;;;;;;;4990841;28;20235;-55
2023/04/02 04:40:06;;;;;;;5.45;4.80;;;;;;;;;;4993349;28;20189;-55
2023/04/02 04:42:33;;;;;;;4.70;4.30;;;;;;;;;;4991261;28;20697;-55
2023/04/02 04:44:59;;;;;;;5.05;4.47;;;;;;;;;;4992065;28;20467;-55
2023/04/02 04:47:44;;;;;;;5.18;4.68;;;;;;;;;;4996716;28;20197;-55
2023/04/02 04:50:30;;;;;;;4.68;4.18;;;;;;;;;;4995133;28;20184;-55
2023/04/02 04:52:56;;;;;;;5.32;4.82;;;;;;;;;;4989158;28;20647;-55
2023/04/02 04:55:28;;;;;;;4.70;4.30;;;;;;;;;;4992151;28;20187;-55
2023/04/02 04:58:08;;;;;;;5.28;4.78;;;;;;;;;;4996383;28;20193;-55
2023/04/02 05:00:52;;;;;;;6.88;4.80;;;;;;;;;;4996241;28;20177;-55
2023/04/02 05:03:21;;;;;;;4.50;4.10;;;;;;;;;;4992855;28;20200;-55
2023/04/02 05:05:47;;;;;;;3.95;3.58;;;;;;;;;;4995018;28;20707;-55
2023/04/02 05:08:21;;;;;;;4.78;4.28;;;;;;;;;;4990206;28;20247;-55
2023/04/02 05:10:47;;;;;;;4.05;3.53;;;;;;;;;;4993831;28;20183;-55
2023/04/02 05:13:16;;;;;;;4.38;3.97;;;;;;;;;;4996093;28;20264;-55
2023/04/02 05:15:50;;;;;;;4.18;3.70;;;;;;;;;;4994833;28;20604;-55
2023/04/02 05:18:31;;;;;;;4.53;4.13;;;;;;;;;;4996362;28;20209;-55
2023/04/02 05:21:06;;;;;;;3.88;3.58;;;;;;;;;;4996872;28;20189;-55
2023/04/02 05:23:39;;;;;;;3.80;3.50;;;;;;;;;;4989430;28;20573;-55
2023/04/02 05:26:14;;;;;;;3.85;3.55;;;;;;;;;;4988323;28;20194;-55
2023/04/02 05:28:40;;;;;;;4.15;3.40;;;;;;;;;;4994714;28;20274;-55
2023/04/02 05:31:12;;;;;;;3.70;3.40;;;;;;;;;;4984675;28;20185;-55
2023/04/02 05:33:39;;;;;;;3.40;3.10;;;;;;;;;;4992181;28;20237;-55
2023/04/02 05:36:07;;;;;;;3.85;3.45;;;;;;;;;;4990054;28;20184;-55
2023/04/02 05:38:35;;;;;;;3.67;3.38;;;;;;;;;;4994294;28;20460;-46
2023/04/02 05:41:00;;;;;;;7.07;3.28;;;;;;;;;;4988368;28;20180;-44
2023/04/02 05:43:28;;;;;;;4.35;2.45;;;;;;;;;;4989154;28;20433;-48
2023/04/02 05:45:56;;;;;;;5.30;3.22;;;;;;;;;;4988367;28;20192;-49
2023/04/02 05:48:26;;;;;;;4.30;2.80;;;;;;;;;;4989401;28;20259;-51
2023/04/02 05:50:54;;;;;;;5.18;3.03;;;;;;;;;;4995895;28;20189;-50
2023/04/02 05:53:25;;;;;;;5.15;2.58;;;;;;;;;;4995740;28;20182;-50
2023/04/02 05:55:57;;;;;;;4.95;2.65;;;;;;;;;;4992910;28;20192;-50
2023/04/02 05:58:36;;;;;;;3.70;2.38;;;;;;;;;;4989988;28;20284;-50
2023/04/02 06:01:10;;;;;;;4.72;2.30;;;;;;;;;;4993855;28;20197;-59
2023/04/02 06:03:44;;;;;;;8.90;2.80;;;;;;;;;;4994286;28;20563;-50
2023/04/02 06:06:31;;;;;;;2.33;2.08;;;;;;;;;;4994902;28;20522;-50
2023/04/02 06:08:59;;;;;;;6.38;2.80;;;;;;;;;;4977884;28;20220;-49
2023/04/02 06:11:31;;;;;;;2.58;1.90;;;;;;;;;;4992246;28;20233;-49
2023/04/02 06:13:57;;;;;;;9.00;2.08;;;;;;;;;;4992316;28;20265;-50
2023/04/02 06:16:25;;;;;;;2.90;1.83;;;;;;;;;;4994594;28;20288;-50
2023/04/02 06:18:51;;;;;;;2.58;2.00;;;;;;;;;;4995249;28;20185;-50
2023/04/02 06:21:20;;;;;;;2.10;1.75;;;;;;;;;;4995438;28;20263;-50
2023/04/02 06:23:55;;;;;;;2.72;1.73;;;;;;;;;;4988584;28;20200;-50
2023/04/02 06:26:35;;;;;;;1.88;1.45;;;;;;;;;;4994288;28;20271;-50
2023/04/02 06:29:01;;;;;;;3.20;1.50;;;;;;;;;;4994073;28;20196;-50
2023/04/02 06:31:53;;;;;;;3.38;1.70;;;;;;;;;;4995782;28;20178;-50
2023/04/02 06:34:27;;;;;;;2.38;1.60;;;;;;;;;;4993259;28;20189;-50
2023/04/02 06:36:58;;;;;;;5.85;1.73;;;;;;;;;;4993964;28;20243;-50
2023/04/02 06:39:24;;;;;;;3.95;1.63;;;;;;;;;;4989712;28;20203;-51
2023/04/02 06:42:12;;;;;;;3.92;1.60;;;;;;;;;;4991158;28;20188;-48
2023/04/02 06:44:38;;;;;;;3.95;1.63;;;;;;;;;;4993990;28;20227;-44
2023/04/02 06:47:22;;;;;;;5.32;2.00;;;;;;;;;;4994712;28;20220;-47
2023/04/02 06:49:55;;;;;;;1.83;1.52;;;;;;;;;;4992584;28;20189;-45
2023/04/02 06:52:23;;;;;;;2.95;2.63;;;;;;;;;;4993900;28;20185;-50
2023/04/02 06:54:50;;;;;;;3.90;3.50;;;;;;;;;;4987244;28;20214;-50
2023/04/02 06:57:15;;;;;;;6.25;4.07;;;;;;;;;;4994103;28;20276;-46
2023/04/02 06:59:41;;;;;;;3.88;3.42;;;;;;;;;;4987786;28;20603;-49
2023/04/02 07:02:29;;;;;;;9.98;7.90;;;;;;;;;;4994566;28;20193;-47
2023/04/02 07:05:00;;;;;;;14.98;12.68;;;;;;;;;;4994789;28;20203;-49
2023/04/02 07:07:26;;;;;;;15.93;14.43;;;;;;;;;;4990131;28;20205;-51
2023/04/02 07:09:51;;;;;;;15.07;13.77;;;;;;;;;;4994311;28;20570;-46
2023/04/02 07:12:22;;;;;;;13.25;11.95;;;;;;;;;;4986166;28;20185;-50
2023/04/02 07:14:48;;;;;;;12.18;10.70;;;;;;;;;;4991583;28;20592;-50
2023/04/02 07:17:16;;;;;;;9.98;9.18;;;;;;;;;;4993833;28;20487;-47
2023/04/02 07:19:44;;;;;;;10.80;9.52;;;;;;;;;;4990767;28;20189;-47
2023/04/02 07:22:10;;;;;;;39.90;18.45;;;;;;;;;;4992706;28;20188;-48
2023/04/02 07:24:36;;;;;;;31.02;14.70;;;;;;;;;;4993618;28;20510;-47
2023/04/02 07:27:02;;;;;;;22.98;11.93;;;;;;;;;;4993954;28;20331;-48
2023/04/02 07:29:31;;;;;;;23.67;11.25;;;;;;;;;;4991961;28;20553;-52
2023/04/02 07:31:57;;;;;;;19.52;11.73;;;;;;;;;;4989563;28;20200;-54
2023/04/02 07:34:22;;;;;;;16.40;9.75;;;;;;;;;;4993054;28;20185;-54
2023/04/02 07:36:48;;;;;;;15.27;9.50;;;;;;;;;;4993761;28;20193;-54
2023/04/02 07:39:14;;;;;;;15.52;8.73;;;;;;;;;;4995352;28;20212;-54
2023/04/02 07:41:50;;;;;;;14.70;8.48;;;;;;;;;;4997510;28;20441;-54
2023/04/02 07:44:16;;;;;;;14.20;7.55;;;;;;;;;;4991594;28;20282;-55
2023/04/02 07:46:42;;;;;;;14.05;7.30;;;;;;;;;;4998462;28;20553;-55
2023/04/02 07:49:08;;;;;;;11.15;7.18;;;;;;;;;;4998680;28;20231;-54
2023/04/02 07:51:34;;;;;;;9.25;6.45;;;;;;;;;;4998766;28;20705;-54
2023/04/02 07:54:00;;;;;;;8.80;6.68;;;;;;;;;;4998058;28;20188;-54
2023/04/02 07:56:27;;;;;;;10.02;6.30;;;;;;;;;;4997459;28;20187;-55
2023/04/02 07:58:53;;;;;;;11.07;6.28;;;;;;;;;;4998255;28;20266;-55
2023/04/02 08:01:22;;;;;;;7.95;5.95;;;;;;;;;;4998437;28;20224;-54
2023/04/02 08:03:48;;;;;;;8.82;5.70;;;;;;;;;;4997622;28;20524;-54
2023/04/02 08:06:14;;;;;;;6.85;5.43;;;;;;;;;;4996245;28;20184;-54
2023/04/02 08:08:40;;;;;;;9.82;5.55;;;;;;;;;;4992415;28;20196;-55
2023/04/02 08:11:07;;;;;;;6.03;5.05;;;;;;;;;;4997624;28;20208;-53
2023/04/02 08:13:33;;;;;;;5.32;4.60;;;;;;;;;;4996217;28;20231;-53
2023/04/02 08:15:59;;;;;;;9.55;5.07;;;;;;;;;;4998139;28;20188;-54
2023/04/02 08:18:25;;;;;;;7.07;5.07;;;;;;;;;;4992580;28;20184;-54
2023/04/02 08:20:52;;;;;;;6.32;4.60;;;;;;;;;;4995295;28;20256;-54
2023/04/02 08:23:18;;;;;;;7.32;4.22;;;;;;;;;;4996277;28;20552;-54
2023/04/02 08:25:45;;;;;;;9.43;4.68;;;;;;;;;;4998083;28;20199;-54
2023/04/02 08:28:11;;;;;;;8.70;4.15;;;;;;;;;;4990269;28;20209;-55
2023/04/02 08:30:37;;;;;;;7.15;4.05;;;;;;;;;;4994367;28;20190;-55
2023/04/02 08:33:03;;;;;;;6.15;4.40;;;;;;;;;;4996782;28;20231;-55
2023/04/02 08:35:29;;;;;;;9.00;4.38;;;;;;;;;;4994552;28;20200;-55
2023/04/02 08:37:55;;;;;;;7.57;4.57;;;;;;;;;;4995205;28;20240;-55
2023/04/02 08:40:27;;;;;;;6.53;4.30;;;;;;;;;;4998181;28;20610;-54
2023/04/02 08:42:58;;;;;;;6.32;4.70;;;;;;;;;;4995826;28;20212;-54
2023/04/02 08:45:24;;;;;;;5.90;4.63;;;;;;;;;;4997841;28;20216;-54
2023/04/02 08:47:52;;;;;;;5.00;3.90;;;;;;;;;;4997339;28;20263;-54
2023/04/02 08:50:26;;;;;;;4.60;3.90;;;;;;;;;;4991512;28;20185;-54
2023/04/02 08:52:52;;;;;;;5.57;3.70;;;;;;;;;;4994878;28;20177;-54
2023/04/02 08:55:24;;;;;;;7.55;3.80;;;;;;;;;;4992912;28;20173;-54
2023/04/02 08:57:57;;;;;;;5.82;3.60;;;;;;;;;;4992156;28;20190;-54
2023/04/02 09:00:34;;;;;;;6.55;3.05;;;;;;;;;;4993996;28;20260;-54
2023/04/02 09:03:05;;;;;;;6.13;3.50;;;;;;;;;;4992883;28;20264;-54
2023/04/02 09:05:33;;;;;;;8.38;3.78;;;;;;;;;;4995346;28;20189;-54
2023/04/02 09:08:01;;;;;;;7.18;3.22;;;;;;;;;;4994857;28;20220;-54
2023/04/02 09:10:40;;;;;;;4.90;3.33;;;;;;;;;;4990849;28;20244;-54
2023/04/02 09:13:18;;;;;;;5.57;3.38;;;;;;;;;;4987558;28;20189;-54
2023/04/02 09:15:44;;;;;;;6.60;3.35;;;;;;;;;;4996755;28;20244;-54
2023/04/02 09:18:17;;;;;;;3.88;2.60;;;;;;;;;;4996539;28;20185;-54
2023/04/02 09:20:44;;;;;;;6.82;3.60;;;;;;;;;;4996744;28;20690;-54
2023/04/02 09:23:15;;;;;;;15.98;6.60;;;;;;;;;;4995042;28;20189;-54
2023/04/02 09:25:44;;;;;;;36.90;13.35;;;;;;;;;;4996497;28;20782;-53
2023/04/02 09:28:11;;;;;;;53.88;19.88;;;;;;;;;;4989402;28;20236;-53
2023/04/02 09:30:43;;;;;;;60.25;21.52;;;;;;;;;;4997195;28;20200;-53
2023/04/02 09:33:09;;;;;;;76.57;22.52;;;;;;;;;;4989192;28;20224;-53
2023/04/02 09:35:36;;;;;;;95.20;25.30;;;;;;;;;;4995795;28;20193;-54
2023/04/02 09:38:16;;;;;;;84.10;23.60;;;;;;;;;;4996200;28;20804;-53
2023/04/02 09:40:50;;;;;;;78.18;23.05;;;;;;;;;;4995574;28;20193;-55
2023/04/02 09:43:16;;;;;;;72.65;21.77;;;;;;;;;;4995737;28;20187;-54
2023/04/02 09:45:43;;;;;;;63.55;21.50;;;;;;;;;;4995134;28;20177;-54
2023/04/02 09:48:23;;;;;;;70.65;19.95;;;;;;;;;;4995738;28;20205;-54
2023/04/02 09:50:49;;;;;;;61.30;19.38;;;;;;;;;;4992263;28;20178;-54
2023/04/02 09:53:29;;;;;;;52.95;17.52;;;;;;;;;;4992643;28;20497;-54
2023/04/02 09:56:08;;;;;;;48.85;16.02;;;;;;;;;;4993890;28;20181;-54
2023/04/02 09:58:34;;;;;;;51.63;14.93;;;;;;;;;;4987514;28;20189;-55
2023/04/02 10:01:00;;;;;;;39.72;12.13;;;;;;;;;;4991722;28;20458;-54
2023/04/02 10:03:32;;;;;;;30.45;10.05;;;;;;;;;;4987993;28;20182;-54
2023/04/02 10:06:09;;;;;;;27.83;9.70;;;;;;;;;;4993774;28;20280;-54
2023/04/02 10:08:36;;;;;;;26.48;8.60;;;;;;;;;;4989209;28;20288;-54
2023/04/02 10:11:03;;;;;;;26.42;8.65;;;;;;;;;;4995380;28;20212;-54
2023/04/02 10:13:29;;;;;;;21.55;7.80;;;;;;;;;;4992150;28;20177;-55
2023/04/02 10:15:55;;;;;;;27.02;7.97;;;;;;;;;;4992832;28;20192;-54
2023/04/02 10:18:21;;;;;;;19.40;7.68;;;;;;;;;;4995091;28;20185;-54
2023/04/02 10:20:47;;;;;;;26.35;7.32;;;;;;;;;;4995359;28;20572;-55
2023/04/02 10:23:17;;;;;;;20.80;6.78;;;;;;;;;;4993576;28;20260;-55
2023/04/02 10:25:47;;;;;;;19.10;5.60;;;;;;;;;;4992074;28;20182;-55
2023/04/02 10:28:32;;;;;;;16.35;5.63;;;;;;;;;;4980920;28;20209;-55
2023/04/02 10:31:18;;;;;;;17.17;5.75;;;;;;;;;;4989464;28;20278;-55
2023/04/02 10:33:47;;;;;;;18.02;5.72;;;;;;;;;;4989486;28;20176;-55
2023/04/02 10:36:22;;;;;;;13.60;4.50;;;;;;;;;;4990105;28;20204;-54
2023/04/02 10:38:52;;;;;;;11.20;4.90;;;;;;;;;;4994481;28;20220;-54
2023/04/02 10:41:18;;;;;;;15.30;4.47;;;;;;;;;;4995826;28;20196;-54
2023/04/02 10:43:57;;;;;;;11.82;4.03;;;;;;;;;;4992942;28;20169;-54
2023/04/02 10:46:47;;;;;;;14.45;4.50;;;;;;;;;;4982642;28;20189;-55
2023/04/02 10:49:21;;;;;;;6.85;3.92;;;;;;;;;;4992400;28;20201;-54
2023/04/02 10:51:57;;;;;;;9.63;3.75;;;;;;;;;;4992680;28;22722;-54
2023/04/02 10:54:42;;;;;;;10.10;4.18;;;;;;;;;;4995054;28;20173;-54
2023/04/02 10:57:26;;;;;;;9.40;3.75;;;;;;;;;;4994675;28;20231;-54
2023/04/02 10:59:58;;;;;;;11.40;3.85;;;;;;;;;;4987823;28;20188;-52
2023/04/02 11:02:43;;;;;;;8.13;3.53;;;;;;;;;;4989610;28;20208;-54
2023/04/02 11:05:34;;;;;;;11.55;3.90;;;;;;;;;;4992108;28;20185;-54
2023/04/02 11:08:06;;;;;;;8.60;3.65;;;;;;;;;;4992708;28;20217;-54
2023/04/02 11:10:34;;;;;;;11.35;4.35;;;;;;;;;;4995038;28;20184;-54
2023/04/02 11:13:04;;;;;;;13.40;4.28;;;;;;;;;;4993416;28;20177;-54
2023/04/02 11:15:31;;;;;;;202.32;77.93;;;;;;;;;;4993597;28;20793;-54
2023/04/02 11:17:56;;;;;;;565.72;278.15;;;;;;;;;;4993610;28;20253;-55
2023/04/02 11:20:42;;;;;;;496.73;245.05;;;;;;;;;;4993978;28;20705;-54
2023/04/02 11:23:12;;;;;;;360.05;157.27;;;;;;;;;;4992315;28;20188;-54
2023/04/02 11:25:39;;;;;;;318.25;125.18;;;;;;;;;;4993590;28;20189;-54
2023/04/02 11:28:23;;;;;;;248.75;98.50;;;;;;;;;;4994159;28;20587;-54
2023/04/02 11:30:49;;;;;;;186.55;75.28;;;;;;;;;;4993146;28;20236;-54
2023/04/02 11:33:35;;;;;;;180.07;72.32;;;;;;;;;;4990445;28;20554;-54
2023/04/02 11:36:01;;;;;;;168.23;70.97;;;;;;;;;;4985890;28;20186;-54
2023/04/02 11:38:27;;;;;;;172.35;68.80;;;;;;;;;;4994356;28;20338;-54
2023/04/02 11:40:53;;;;;;;167.45;68.95;;;;;;;;;;4994850;28;20185;-54
2023/04/02 11:43:36;;;;;;;170.52;67.82;;;;;;;;;;4994040;28;20552;-54
2023/04/02 11:46:03;;;;;;;163.93;68.65;;;;;;;;;;4993580;28;20212;-54
2023/04/02 11:48:34;;;;;;;173.50;67.57;;;;;;;;;;4992648;28;20461;-54
2023/04/02 11:51:03;;;;;;;163.48;64.95;;;;;;;;;;4992525;28;20563;-54
2023/04/02 11:53:33;;;;;;;152.93;62.35;;;;;;;;;;4992888;28;20193;-54
2023/04/02 11:56:07;;;;;;;148.75;61.33;;;;;;;;;;4989416;28;20189;-54
2023/04/02 11:58:51;;;;;;;142.52;57.08;;;;;;;;;;4991682;28;20260;-54
2023/04/02 12:01:24;;;;;;;123.80;52.58;;;;;;;;;;4987329;28;20510;-54
2023/04/02 12:04:00;;;;;;;130.57;52.33;;;;;;;;;;4993515;28;20185;-54
2023/04/02 12:06:45;;;;;;;123.88;48.50;;;;;;;;;;4994492;28;20220;-54
2023/04/02 12:09:28;;;;;;;107.05;44.67;;;;;;;;;;4992759;28;20206;-54
2023/04/02 12:11:56;;;;;;;98.50;42.05;;;;;;;;;;4992979;28;20197;-53
2023/04/02 12:14:31;;;;;;;94.63;40.80;;;;;;;;;;4993828;28;20468;-53
2023/04/02 12:16:58;;;;;;;91.50;37.72;;;;;;;;;;4988566;28;20337;-53
2023/04/02 12:19:25;;;;;;;92.40;38.88;;;;;;;;;;4988040;28;20177;-54
2023/04/02 12:21:51;;;;;;;97.93;40.20;;;;;;;;;;4988683;28;20178;-54
2023/04/02 12:24:20;;;;;;;88.40;37.83;;;;;;;;;;4993717;28;20224;-54
2023/04/02 12:26:46;;;;;;;83.85;36.78;;;;;;;;;;4993735;28;20185;-54
2023/04/02 12:29:17;;;;;;;77.38;35.45;;;;;;;;;;4997825;28;20188;-54
2023/04/02 12:31:43;;;;;;;84.18;35.42;;;;;;;;;;4991515;28;20176;-52
2023/04/02 12:34:14;;;;;;;76.80;34.70;;;;;;;;;;4995978;28;20464;-53
2023/04/02 12:36:50;;;;;;;75.63;34.28;;;;;;;;;;4993444;28;20177;-54
2023/04/02 12:39:17;;;;;;;67.95;30.83;;;;;;;;;;4990726;28;20231;-54
2023/04/02 12:41:43;;;;;;;71.22;31.75;;;;;;;;;;4996850;28;20565;-54
2023/04/02 12:44:16;;;;;;;66.53;30.23;;;;;;;;;;4995255;28;20333;-54
2023/04/02 12:46:42;;;;;;;63.70;29.50;;;;;;;;;;4996619;28;20181;-54
2023/04/02 12:49:14;;;;;;;66.72;31.20;;;;;;;;;;4996964;28;20187;-54
2023/04/02 12:51:40;;;;;;;63.05;28.33;;;;;;;;;;4994457;28;20181;-54
2023/04/02 12:54:06;;;;;;;69.28;30.80;;;;;;;;;;4996588;28;20189;-54
2023/04/02 12:56:32;;;;;;;65.10;30.00;;;;;;;;;;4996519;28;20251;-54
2023/04/02 12:58:59;;;;;;;61.45;28.67;;;;;;;;;;4985680;28;20190;-54
2023/04/02 13:01:27;;;;;;;62.42;28.83;;;;;;;;;;4995775;28;20455;-54
2023/04/02 13:04:00;;;;;;;56.42;27.52;;;;;;;;;;4996775;28;20260;-54
2023/04/02 13:06:26;;;;;;;51.30;23.60;;;;;;;;;;4997096;28;20185;-54
2023/04/02 13:08:52;;;;;;;55.22;25.40;;;;;;;;;;4994489;28;20232;-54
2023/04/02 13:11:19;;;;;;;55.50;23.50;;;;;;;;;;4992855;28;20596;-54
2023/04/02 13:13:47;;;;;;;51.50;23.23;;;;;;;;;;4996472;28;20264;-54
2023/04/02 13:16:19;;;;;;;50.72;22.20;;;;;;;;;;4989565;28;20178;-54
2023/04/02 13:18:46;;;;;;;49.65;22.63;;;;;;;;;;4995129;28;20181;-54
2023/04/02 13:21:20;;;;;;;49.05;21.70;;;;;;;;;;4996224;28;20208;-54
2023/04/02 13:23:46;;;;;;;45.75;21.27;;;;;;;;;;4996686;28;20192;-54
2023/04/02 13:26:16;;;;;;;40.17;21.30;;;;;;;;;;4995222;28;20617;-54
2023/04/02 13:28:42;;;;;;;41.55;19.90;;;;;;;;;;4996759;28;20284;-54
2023/04/02 13:31:18;;;;;;;42.08;19.50;;;;;;;;;;4996612;28;20184;-54
2023/04/02 13:33:44;;;;;;;40.85;19.00;;;;;;;;;;4993542;28;20185;-54
2023/04/02 13:36:13;;;;;;;39.95;19.27;;;;;;;;;;4993579;28;20607;-54
2023/04/02 13:38:39;;;;;;;43.47;19.00;;;;;;;;;;4996107;28;20204;-54
2023/04/02 13:41:05;;;;;;;46.20;18.25;;;;;;;;;;4995327;28;20189;-54
2023/04/02 13:43:31;;;;;;;36.35;18.23;;;;;;;;;;4994711;28;20185;-54
2023/04/02 13:45:58;;;;;;;38.67;18.08;;;;;;;;;;4996411;28;20177;-55
2023/04/02 13:48:27;;;;;;;41.28;18.48;;;;;;;;;;4993919;28;20231;-54
2023/04/02 13:50:53;;;;;;;39.40;18.85;;;;;;;;;;4993679;28;20201;-54
2023/04/02 13:53:21;;;;;;;33.30;16.85;;;;;;;;;;4994542;28;20188;-54
2023/04/02 13:55:47;;;;;;;41.13;17.83;;;;;;;;;;4993230;28;20466;-54
2023/04/02 13:58:13;;;;;;;35.75;16.83;;;;;;;;;;4996041;28;20185;-54
2023/04/02 14:00:39;;;;;;;40.83;17.10;;;;;;;;;;4995707;28;20716;-54
2023/04/02 14:03:08;;;;;;;37.10;16.50;;;;;;;;;;4993817;28;20576;-53
2023/04/02 14:05:53;;;;;;;35.55;17.23;;;;;;;;;;4992074;28;20197;-52
2023/04/02 14:08:31;;;;;;;31.63;15.23;;;;;;;;;;4995108;28;20553;-53
2023/04/02 14:10:57;;;;;;;32.80;14.95;;;;;;;;;;4990376;28;20178;-52
2023/04/02 14:13:32;;;;;;;31.75;14.73;;;;;;;;;;4993446;28;20181;-52
2023/04/02 14:16:02;;;;;;;31.80;14.98;;;;;;;;;;4996154;28;20184;-53
2023/04/02 14:18:40;;;;;;;29.80;15.00;;;;;;;;;;4994139;28;20620;-52
2023/04/02 14:21:25;;;;;;;31.67;14.45;;;;;;;;;;4995138;28;20259;-53
2023/04/02 14:24:10;;;;;;;30.17;14.65;;;;;;;;;;4994575;28;20243;-53
2023/04/02 14:26:44;;;;;;;27.95;13.95;;;;;;;;;;4995272;28;20485;-53
2023/04/02 14:29:29;;;;;;;29.90;14.05;;;;;;;;;;4984767;28;20211;-53
2023/04/02 14:31:59;;;;;;;29.75;14.43;;;;;;;;;;4991888;28;20265;-53
2023/04/02 14:34:51;;;;;;;26.55;13.45;;;;;;;;;;4992795;28;20177;-53
2023/04/02 14:37:26;;;;;;;25.35;12.55;;;;;;;;;;4991755;28;20280;-53
2023/04/02 14:40:03;;;;;;;26.92;12.68;;;;;;;;;;4992726;28;20263;-53
2023/04/02 14:42:53;;;;;;;24.42;12.88;;;;;;;;;;4993693;28;20280;-53
2023/04/02 14:45:19;;;;;;;23.70;12.15;;;;;;;;;;4987230;28;20184;-53
2023/04/02 14:47:48;;;;;;;22.85;11.80;;;;;;;;;;4994183;28;20188;-53
2023/04/02 14:50:19;;;;;;;24.63;11.75;;;;;;;;;;4986171;28;20172;-53